createdAt,value
2018-09-18T00:01:15.410Z,6.60
2018-09-18T00:03:43.526Z,6.93
2018-09-18T00:06:11.630Z,6.40
2018-09-18T00:08:39.829Z,7.20
2018-09-18T00:11:07.910Z,6.87
2018-09-18T00:13:36.019Z,6.33
2018-09-18T00:16:04.106Z,6.53
2018-09-18T00:18:32.555Z,8.23
2018-09-18T00:21:00.830Z,7.43
2018-09-18T00:23:28.926Z,7.10
2018-09-18T00:25:57.043Z,6.80
2018-09-18T00:28:25.522Z,7.60
2018-09-18T00:30:53.609Z,7.20
2018-09-18T00:33:21.707Z,5.90
2018-09-18T00:35:49.782Z,7.40
2018-09-18T00:38:17.861Z,7.33
2018-09-18T00:40:45.949Z,7.80
2018-09-18T00:43:14.038Z,6.60
2018-09-18T00:45:42.126Z,6.93
2018-09-18T00:48:10.210Z,8.07
2018-09-18T00:50:38.301Z,7.73
2018-09-18T00:53:06.386Z,6.90
2018-09-18T00:55:34.470Z,6.90
2018-09-18T00:58:02.598Z,7.10
2018-09-18T01:00:30.881Z,7.30
2018-09-18T01:02:58.969Z,7.50
2018-09-18T01:05:27.060Z,6.97
2018-09-18T01:07:55.862Z,7.70
2018-09-18T01:10:23.963Z,7.63
2018-09-18T01:12:52.078Z,7.03
2018-09-18T01:15:20.187Z,7.60
2018-09-18T01:17:48.398Z,7.57
2018-09-18T01:20:16.498Z,7.00
2018-09-18T01:22:44.582Z,7.40
2018-09-18T01:25:12.688Z,7.73
2018-09-18T01:27:40.773Z,6.93
2018-09-18T01:30:08.870Z,7.83
2018-09-18T01:32:36.951Z,7.30
2018-09-18T01:35:05.050Z,7.57
2018-09-18T01:37:33.141Z,7.20
2018-09-18T01:40:01.229Z,8.10
2018-09-18T01:42:29.360Z,7.10
2018-09-18T01:44:57.463Z,7.67
2018-09-18T01:47:25.547Z,7.10
2018-09-18T01:49:53.649Z,7.93
2018-09-18T01:52:21.733Z,8.00
2018-09-18T01:54:49.835Z,7.23
2018-09-18T01:57:17.926Z,8.23
2018-09-18T01:59:46.009Z,7.03
2018-09-18T02:02:14.094Z,8.93
2018-09-18T02:04:42.190Z,7.90
2018-09-18T02:07:10.274Z,8.33
2018-09-18T02:09:38.360Z,7.83
2018-09-18T02:12:06.438Z,7.90
2018-09-18T02:14:34.534Z,8.50
2018-09-18T02:17:02.614Z,7.27
2018-09-18T02:19:30.701Z,8.10
2018-09-18T02:21:58.825Z,8.50
2018-09-18T02:24:26.918Z,7.30
2018-09-18T02:26:54.998Z,7.00
2018-09-18T02:29:23.087Z,9.97
2018-09-18T02:31:51.178Z,8.63
2018-09-18T02:34:19.292Z,8.57
2018-09-18T02:36:47.378Z,8.20
2018-09-18T02:39:15.466Z,7.80
2018-09-18T02:41:44.034Z,7.80
2018-09-18T02:44:12.143Z,6.70
2018-09-18T02:46:40.248Z,7.33
2018-09-18T02:49:08.325Z,7.93
2018-09-18T02:51:36.430Z,8.00
2018-09-18T02:54:04.506Z,7.87
2018-09-18T02:56:32.593Z,7.57
2018-09-18T02:59:00.682Z,7.73
2018-09-18T03:01:28.771Z,8.57
2018-09-18T03:03:56.854Z,8.97
2018-09-18T03:06:25.043Z,8.00
2018-09-18T03:08:53.117Z,8.73
2018-09-18T03:11:21.289Z,8.53
2018-09-18T03:13:49.289Z,8.40
2018-09-18T03:16:17.374Z,9.10
2018-09-18T03:18:45.462Z,7.70
2018-09-18T03:21:13.558Z,8.20
2018-09-18T03:23:41.635Z,8.17
2018-09-18T03:26:09.825Z,8.87
2018-09-18T03:28:38.302Z,9.77
2018-09-18T03:31:06.418Z,8.40
2018-09-18T03:33:34.638Z,8.60
2018-09-18T03:36:02.735Z,8.37
2018-09-18T03:38:30.813Z,8.40
2018-09-18T03:40:58.898Z,8.30
2018-09-18T03:43:26.986Z,8.30
2018-09-18T03:45:55.069Z,8.17
2018-09-18T03:48:23.181Z,8.23
2018-09-18T03:50:51.297Z,9.13
2018-09-18T03:53:19.390Z,8.67
2018-09-18T03:55:47.473Z,9.10
2018-09-18T03:58:15.570Z,9.30
2018-09-18T04:00:43.650Z,9.33
2018-09-18T04:03:11.765Z,8.60
2018-09-18T04:05:39.850Z,9.37
2018-09-18T04:08:08.018Z,8.77
2018-09-18T04:10:36.329Z,9.97
2018-09-18T04:13:04.386Z,9.07
2018-09-18T04:15:32.474Z,9.23
2018-09-18T04:18:00.566Z,7.57
2018-09-18T04:20:28.642Z,8.90
2018-09-18T04:22:57.079Z,8.90
2018-09-18T04:25:25.142Z,8.40
2018-09-18T04:27:53.238Z,9.20
2018-09-18T04:30:21.322Z,8.50
2018-09-18T04:32:49.414Z,8.70
2018-09-18T04:35:17.618Z,8.87
2018-09-18T04:37:45.685Z,8.73
2018-09-18T04:40:13.766Z,8.10
2018-09-18T04:42:41.858Z,9.23
2018-09-18T04:45:09.943Z,8.73
2018-09-18T04:47:38.030Z,8.10
2018-09-18T04:50:06.135Z,8.13
2018-09-18T04:52:34.230Z,8.60
2018-09-18T04:55:02.339Z,9.50
2018-09-18T04:57:30.410Z,8.93
2018-09-18T04:59:58.501Z,9.60
2018-09-18T05:02:26.587Z,9.00
2018-09-18T05:04:54.670Z,8.57
2018-09-18T05:07:22.768Z,8.70
2018-09-18T05:09:50.838Z,8.27
2018-09-18T05:12:18.938Z,8.97
2018-09-18T05:14:47.030Z,8.90
2018-09-18T05:17:15.130Z,9.03
2018-09-18T05:19:43.225Z,9.10
2018-09-18T05:22:11.322Z,9.83
2018-09-18T05:24:39.421Z,10.47
2018-09-18T05:27:07.509Z,9.07
2018-09-18T05:29:35.606Z,8.83
2018-09-18T05:32:03.682Z,8.93
2018-09-18T05:34:31.785Z,10.73
2018-09-18T05:36:59.869Z,8.87
2018-09-18T05:39:27.970Z,10.27
2018-09-18T05:41:56.111Z,10.10
2018-09-18T05:44:24.278Z,9.90
2018-09-18T05:46:52.366Z,10.10
2018-09-18T05:49:20.662Z,10.33
2018-09-18T05:51:48.742Z,9.27
2018-09-18T05:54:16.843Z,10.07
2018-09-18T05:56:44.933Z,10.07
2018-09-18T05:59:13.030Z,10.23
2018-09-18T06:01:41.123Z,11.77
2018-09-18T06:04:09.217Z,11.00
2018-09-18T06:06:38.135Z,10.30
2018-09-18T06:09:08.656Z,10.70
2018-09-18T06:11:36.894Z,10.37
2018-09-18T06:14:04.986Z,10.43
2018-09-18T06:16:33.342Z,10.50
2018-09-18T06:19:01.438Z,9.93
2018-09-18T06:21:29.537Z,9.60
2018-09-18T06:23:57.630Z,10.60
2018-09-18T06:26:25.710Z,9.50
2018-09-18T06:28:54.119Z,9.80
2018-09-18T06:31:22.385Z,9.47
2018-09-18T06:33:50.662Z,10.37
2018-09-18T06:36:18.749Z,9.50
2018-09-18T06:38:46.874Z,9.80
2018-09-18T06:41:14.958Z,9.60
2018-09-18T06:43:43.050Z,9.53
2018-09-18T06:46:11.518Z,9.03
2018-09-18T06:48:39.618Z,8.70
2018-09-18T06:51:07.699Z,9.90
2018-09-18T06:53:35.790Z,9.73
2018-09-18T06:56:03.866Z,8.67
2018-09-18T06:58:31.974Z,9.33
2018-09-18T07:01:00.079Z,10.63
2018-09-18T07:03:28.173Z,10.50
2018-09-18T07:05:56.274Z,10.80
2018-09-18T07:08:24.358Z,10.40
2018-09-18T07:10:52.453Z,10.00
2018-09-18T07:13:20.555Z,12.13
2018-09-18T07:15:48.650Z,10.43
2018-09-18T07:18:16.738Z,11.23
2018-09-18T07:20:44.842Z,11.50
2018-09-18T07:23:12.965Z,12.43
2018-09-18T07:25:41.337Z,12.60
2018-09-18T07:28:09.630Z,12.13
2018-09-18T07:30:37.734Z,12.87
2018-09-18T07:33:05.862Z,13.33
2018-09-18T07:35:33.955Z,12.00
2018-09-18T07:38:02.046Z,12.30
2018-09-18T07:40:30.155Z,11.47
2018-09-18T07:42:58.242Z,9.97
2018-09-18T07:45:26.343Z,10.87
2018-09-18T07:47:54.454Z,11.50
2018-09-18T07:50:22.559Z,10.83
2018-09-18T07:52:50.650Z,11.03
2018-09-18T07:55:18.882Z,12.53
2018-09-18T07:57:46.975Z,12.00
2018-09-18T08:00:15.080Z,11.80
2018-09-18T08:02:43.169Z,12.87
2018-09-18T08:05:11.274Z,12.57
2018-09-18T08:07:39.365Z,12.87
2018-09-18T08:10:07.674Z,12.30
2018-09-18T08:12:35.754Z,12.30
2018-09-18T08:15:03.865Z,12.57
2018-09-18T08:17:31.951Z,12.20
2018-09-18T08:20:00.034Z,12.47
2018-09-18T08:22:28.132Z,12.80
2018-09-18T08:24:56.225Z,11.60
2018-09-18T08:27:24.328Z,11.87
2018-09-18T08:29:52.465Z,12.33
2018-09-18T08:32:20.571Z,10.90
2018-09-18T08:34:48.662Z,13.37
2018-09-18T08:37:16.771Z,12.50
2018-09-18T08:39:44.953Z,12.47
2018-09-18T08:42:12.980Z,12.67
2018-09-18T08:44:41.068Z,12.23
2018-09-18T08:47:09.564Z,10.80
2018-09-18T08:49:37.685Z,12.10
2018-09-18T08:52:05.894Z,11.00
2018-09-18T08:54:33.918Z,10.10
2018-09-18T08:57:02.049Z,10.93
2018-09-18T08:59:30.108Z,9.90
2018-09-18T09:01:59.072Z,11.00
2018-09-18T09:04:27.144Z,9.43
2018-09-18T09:06:55.198Z,10.83
2018-09-18T09:09:23.393Z,9.40
2018-09-18T09:11:51.422Z,9.90
2018-09-18T09:14:19.508Z,8.60
2018-09-18T09:16:47.590Z,9.53
2018-09-18T09:19:15.685Z,9.67
2018-09-18T09:21:43.896Z,9.30
2018-09-18T09:24:11.924Z,9.73
2018-09-18T09:26:40.014Z,8.43
2018-09-18T09:29:08.126Z,10.00
2018-09-18T09:31:36.237Z,9.30
2018-09-18T09:34:04.986Z,8.70
2018-09-18T09:36:33.089Z,9.23
2018-09-18T09:39:01.363Z,9.00
2018-09-18T09:41:29.458Z,10.13
2018-09-18T09:43:57.563Z,7.80
2018-09-18T09:46:25.650Z,8.63
2018-09-18T09:48:53.742Z,9.27
2018-09-18T09:51:21.946Z,8.33
2018-09-18T09:53:49.966Z,8.00
2018-09-18T09:56:18.053Z,9.00
2018-09-18T09:58:46.143Z,6.50
2018-09-18T10:01:19.558Z,7.53
2018-09-18T10:03:47.655Z,7.70
2018-09-18T10:06:15.742Z,7.67
2018-09-18T10:08:43.839Z,7.30
2018-09-18T10:11:11.939Z,7.37
2018-09-18T10:13:40.052Z,6.90
2018-09-18T10:16:08.134Z,6.73
2018-09-18T10:18:36.221Z,7.23
2018-09-18T10:21:04.321Z,7.30
2018-09-18T10:23:32.529Z,8.10
2018-09-18T10:26:00.789Z,7.07
2018-09-18T10:28:28.856Z,7.50
2018-09-18T10:30:57.024Z,7.60
2018-09-18T10:33:25.142Z,7.97
2018-09-18T10:35:53.855Z,7.17
2018-09-18T10:38:22.095Z,6.80
2018-09-18T10:40:50.173Z,6.30
2018-09-18T10:43:18.255Z,6.03
2018-09-18T10:45:47.307Z,7.50
2018-09-18T10:48:16.184Z,6.40
2018-09-18T10:50:44.285Z,6.93
2018-09-18T10:53:12.417Z,6.87
2018-09-18T10:55:42.298Z,6.80
2018-09-18T10:58:10.402Z,6.60
2018-09-18T11:00:38.524Z,7.20
2018-09-18T11:03:06.596Z,6.53
2018-09-18T11:05:34.807Z,7.20
2018-09-18T11:08:02.903Z,6.60
2018-09-18T11:10:31.073Z,6.97
2018-09-18T11:12:59.170Z,6.50
2018-09-18T11:15:27.409Z,6.93
2018-09-18T11:17:55.538Z,6.90
2018-09-18T11:20:23.596Z,7.70
2018-09-18T11:22:51.674Z,7.00
2018-09-18T11:25:19.898Z,6.00
2018-09-18T11:27:47.924Z,7.43
2018-09-18T11:30:15.990Z,7.30
2018-09-18T11:32:44.129Z,6.80
2018-09-18T11:35:12.146Z,6.73
2018-09-18T11:37:40.222Z,6.47
2018-09-18T11:40:08.312Z,6.70
2018-09-18T11:42:36.392Z,7.50
2018-09-18T11:45:04.492Z,7.10
2018-09-18T11:47:32.563Z,6.30
2018-09-18T11:50:00.775Z,7.00
2018-09-18T11:52:28.858Z,6.90
2018-09-18T11:54:56.947Z,6.60
2018-09-18T11:57:26.054Z,6.77
2018-09-18T11:59:54.146Z,6.90
2018-09-18T12:02:22.226Z,7.27
2018-09-18T12:04:50.405Z,6.90
2018-09-18T12:07:18.386Z,7.57
2018-09-18T12:09:46.477Z,6.90
2018-09-18T12:12:14.579Z,6.80
2018-09-18T12:14:42.673Z,6.50
2018-09-18T12:17:10.767Z,6.60
2018-09-18T12:19:38.920Z,7.30
2018-09-18T12:22:07.132Z,6.23
2018-09-18T12:24:35.207Z,6.07
2018-09-18T12:27:03.382Z,7.03
2018-09-18T12:29:31.489Z,5.80
2018-09-18T12:31:59.572Z,6.20
2018-09-18T12:34:27.653Z,6.30
2018-09-18T12:36:55.722Z,6.90
2018-09-18T12:39:24.058Z,6.40
2018-09-18T12:41:52.232Z,5.90
2018-09-18T12:44:20.202Z,6.30
2018-09-18T12:46:48.290Z,5.83
2018-09-18T12:49:16.463Z,5.73
2018-09-18T12:51:44.474Z,6.10
2018-09-18T12:54:12.556Z,5.70
2018-09-18T12:56:40.680Z,5.60
2018-09-18T12:59:08.770Z,5.50
2018-09-18T13:01:36.811Z,5.90
2018-09-18T13:04:04.899Z,5.10
2018-09-18T13:06:33.170Z,6.10
2018-09-18T13:09:01.080Z,5.67
2018-09-18T13:11:29.170Z,6.93
2018-09-18T13:13:57.401Z,5.87
2018-09-18T13:16:25.417Z,5.97
2018-09-18T13:18:53.486Z,5.67
2018-09-18T13:21:21.570Z,5.20
2018-09-18T13:23:49.662Z,5.90
2018-09-18T13:26:17.758Z,6.27
2018-09-18T13:28:46.266Z,5.83
2018-09-18T13:31:14.363Z,6.10
2018-09-18T13:33:42.442Z,6.63
2018-09-18T13:36:11.402Z,7.03
2018-09-18T13:38:39.493Z,6.40
2018-09-18T13:41:07.737Z,6.03
2018-09-18T13:43:37.155Z,6.60
2018-09-18T13:46:05.379Z,5.80
2018-09-18T13:48:33.470Z,6.07
2018-09-18T13:51:01.795Z,6.23
2018-09-18T13:53:29.871Z,6.40
2018-09-18T13:55:57.987Z,5.87
2018-09-18T13:58:26.041Z,6.47
2018-09-18T14:00:54.318Z,6.43
2018-09-18T14:03:22.546Z,6.03
2018-09-18T14:05:50.642Z,5.57
2018-09-18T14:08:18.963Z,5.93
2018-09-18T14:10:47.021Z,6.40
2018-09-18T14:13:15.102Z,6.50
2018-09-18T14:15:43.188Z,6.27
2018-09-18T14:18:11.283Z,6.40
2018-09-18T14:20:39.406Z,6.10
2018-09-18T14:23:07.554Z,6.17
2018-09-18T14:25:35.705Z,6.60
2018-09-18T14:28:03.738Z,6.60
2018-09-18T14:30:31.891Z,5.90
2018-09-18T14:33:00.019Z,6.80
2018-09-18T14:35:28.134Z,6.33
2018-09-18T14:37:56.254Z,6.30
2018-09-18T14:40:24.388Z,6.20
2018-09-18T14:42:52.421Z,6.03
2018-09-18T14:45:20.579Z,6.20
2018-09-18T14:47:48.741Z,5.63
2018-09-18T14:50:16.734Z,6.10
2018-09-18T14:52:44.818Z,6.43
2018-09-18T14:55:12.906Z,6.20
2018-09-18T14:57:41.210Z,6.27
2018-09-18T15:00:09.307Z,6.30
2018-09-18T15:02:37.385Z,6.17
2018-09-18T15:05:05.473Z,5.87
2018-09-18T15:07:33.555Z,6.83
2018-09-18T15:10:01.639Z,6.93
2018-09-18T15:12:29.717Z,7.53
2018-09-18T15:14:57.802Z,6.87
2018-09-18T15:17:25.894Z,6.33
2018-09-18T15:19:53.969Z,6.30
2018-09-18T15:22:22.053Z,6.80
2018-09-18T15:24:50.126Z,6.27
2018-09-18T15:27:18.216Z,6.33
2018-09-18T15:29:46.308Z,5.60
2018-09-18T15:32:14.458Z,5.83
2018-09-18T15:34:42.540Z,5.60
2018-09-18T15:37:10.594Z,6.50
2018-09-18T15:39:38.760Z,5.60
2018-09-18T15:42:06.771Z,5.93
2018-09-18T15:44:34.848Z,5.97
2018-09-18T15:47:02.949Z,5.80
2018-09-18T15:49:31.026Z,6.10
2018-09-18T15:51:59.155Z,6.10
2018-09-18T15:54:27.199Z,5.40
2018-09-18T15:56:55.441Z,6.00
2018-09-18T15:59:23.561Z,6.83
2018-09-18T16:01:51.888Z,6.07
2018-09-18T16:04:20.010Z,6.27
2018-09-18T16:06:48.109Z,7.17
2018-09-18T16:09:16.186Z,6.47
2018-09-18T16:11:44.287Z,9.03
2018-09-18T16:14:12.362Z,7.63
2018-09-18T16:16:40.471Z,7.70
2018-09-18T16:19:08.887Z,6.67
2018-09-18T16:21:37.178Z,6.73
2018-09-18T16:24:05.305Z,6.47
2018-09-18T16:26:33.622Z,6.30
2018-09-18T16:29:01.717Z,6.47
2018-09-18T16:31:29.809Z,6.33
2018-09-18T16:33:57.947Z,6.20
2018-09-18T16:36:26.030Z,6.63
2018-09-18T16:38:54.114Z,6.83
2018-09-18T16:41:22.197Z,7.10
2018-09-18T16:43:50.289Z,6.50
2018-09-18T16:46:18.373Z,6.40
2018-09-18T16:48:46.563Z,6.50
2018-09-18T16:51:14.553Z,7.50
2018-09-18T16:53:42.657Z,6.90
2018-09-18T16:56:10.743Z,7.23
2018-09-18T16:58:38.895Z,7.00
2018-09-18T17:01:06.899Z,6.90
2018-09-18T17:03:34.986Z,7.10
2018-09-18T17:06:03.058Z,6.10
2018-09-18T17:08:31.146Z,6.40
2018-09-18T17:10:59.282Z,6.60
2018-09-18T17:13:27.417Z,6.77
2018-09-18T17:15:55.443Z,6.20
2018-09-18T17:18:23.544Z,7.00
2018-09-18T17:20:51.612Z,6.90
2018-09-18T17:23:19.710Z,6.90
2018-09-18T17:25:47.798Z,6.33
2018-09-18T17:28:16.044Z,6.33
2018-09-18T17:30:44.100Z,7.10
2018-09-18T17:33:12.153Z,6.80
2018-09-18T17:35:40.305Z,7.37
2018-09-18T17:38:08.330Z,7.07
2018-09-18T17:40:36.406Z,6.57
2018-09-18T17:43:04.511Z,7.20
2018-09-18T17:45:32.583Z,6.70
2018-09-18T17:48:00.664Z,6.57
2018-09-18T17:50:28.757Z,7.03
2018-09-18T17:52:56.834Z,6.90
2018-09-18T17:55:24.953Z,6.40
2018-09-18T17:57:53.034Z,6.40
2018-09-18T18:00:21.118Z,6.80
2018-09-18T18:02:49.203Z,6.80
2018-09-18T18:05:17.348Z,5.97
2018-09-18T18:07:45.428Z,6.07
2018-09-18T18:10:13.643Z,6.80
2018-09-18T18:12:41.980Z,7.50
2018-09-18T18:15:16.872Z,6.90
2018-09-18T18:17:44.998Z,7.17
2018-09-18T18:20:13.129Z,7.60
2018-09-18T18:22:41.183Z,6.33
2018-09-18T18:25:09.406Z,6.40
2018-09-18T18:27:37.494Z,7.60
2018-09-18T18:30:05.722Z,6.77
2018-09-18T18:32:33.802Z,6.30
2018-09-18T18:35:01.918Z,6.57
2018-09-18T18:37:30.002Z,7.03
2018-09-18T18:39:58.095Z,6.30
2018-09-18T18:42:26.230Z,6.03
2018-09-18T18:44:54.318Z,6.50
2018-09-18T18:47:22.407Z,6.40
2018-09-18T18:49:50.498Z,6.40
2018-09-18T18:52:18.980Z,7.17
2018-09-18T18:54:47.254Z,6.80
2018-09-18T18:57:15.281Z,7.20
2018-09-18T18:59:43.428Z,7.03
2018-09-18T19:02:11.490Z,7.23
2018-09-18T19:04:39.586Z,6.53
2018-09-18T19:07:07.681Z,6.47
2018-09-18T19:09:35.786Z,6.10
2018-09-18T19:12:03.916Z,6.67
2018-09-18T19:14:31.984Z,5.97
2018-09-18T19:17:00.073Z,6.87
2018-09-18T19:19:28.158Z,6.90
2018-09-18T19:21:56.239Z,6.43
2018-09-18T19:24:24.432Z,6.73
2018-09-18T19:26:52.523Z,6.70
2018-09-18T19:29:20.618Z,7.37
2018-09-18T19:31:48.719Z,6.77
2018-09-18T19:34:16.812Z,7.60
2018-09-18T19:36:44.901Z,7.80
2018-09-18T19:39:13.035Z,6.93
2018-09-18T19:41:41.080Z,6.57
2018-09-18T19:44:09.410Z,7.90
2018-09-18T19:46:37.569Z,7.07
2018-09-18T19:49:05.693Z,7.87
2018-09-18T19:51:33.763Z,7.60
2018-09-18T19:54:01.864Z,6.63
2018-09-18T19:56:29.948Z,6.80
2018-09-18T19:58:58.027Z,8.00
2018-09-18T20:01:26.157Z,7.70
2018-09-18T20:03:54.240Z,6.87
2018-09-18T20:06:22.334Z,7.13
2018-09-18T20:08:50.418Z,7.90
2018-09-18T20:11:18.518Z,6.73
2018-09-18T20:13:46.605Z,7.47
2018-09-18T20:16:14.690Z,7.40
2018-09-18T20:18:42.773Z,6.93
2018-09-18T20:21:10.873Z,7.77
2018-09-18T20:23:38.938Z,8.40
2018-09-18T20:26:07.048Z,7.60
2018-09-18T20:28:35.115Z,7.60
2018-09-18T20:31:03.209Z,6.50
2018-09-18T20:33:31.296Z,7.77
2018-09-18T20:35:59.404Z,7.13
2018-09-18T20:38:27.566Z,7.70
2018-09-18T20:40:55.663Z,7.83
2018-09-18T20:43:23.759Z,8.43
2018-09-18T20:45:52.062Z,7.10
2018-09-18T20:48:20.202Z,7.77
2018-09-18T20:50:48.262Z,8.17
2018-09-18T20:53:16.331Z,8.83
2018-09-18T20:55:44.559Z,7.43
2018-09-18T20:58:12.630Z,6.70
2018-09-18T21:00:40.718Z,7.80
2018-09-18T21:03:08.827Z,7.00
2018-09-18T21:05:36.914Z,7.27
2018-09-18T21:08:05.006Z,8.00
2018-09-18T21:10:33.259Z,7.60
2018-09-18T21:13:01.335Z,7.97
2018-09-18T21:15:29.429Z,8.20
2018-09-18T21:17:57.519Z,7.13
2018-09-18T21:20:25.601Z,7.27
2018-09-18T21:22:53.681Z,7.63
2018-09-18T21:25:28.382Z,7.60
2018-09-18T21:27:56.454Z,7.90
2018-09-18T21:30:24.569Z,8.30
2018-09-18T21:32:52.651Z,8.43
2018-09-18T21:35:20.770Z,7.37
2018-09-18T21:37:48.847Z,8.80
2018-09-18T21:40:16.940Z,9.60
2018-09-18T21:42:45.056Z,10.50
2018-09-18T21:45:13.150Z,11.03
2018-09-18T21:47:41.237Z,9.97
2018-09-18T21:50:09.348Z,9.30
2018-09-18T21:52:37.443Z,8.40
2018-09-18T21:55:05.588Z,8.10
2018-09-18T21:57:33.633Z,8.43
2018-09-18T22:00:01.721Z,8.50
2018-09-18T22:02:29.814Z,9.07
2018-09-18T22:04:57.902Z,8.23
2018-09-18T22:07:25.998Z,8.27
2018-09-18T22:09:54.097Z,8.57
2018-09-18T22:12:22.246Z,9.90
2018-09-18T22:14:50.299Z,9.27
2018-09-18T22:17:18.398Z,9.60
2018-09-18T22:19:46.485Z,9.00
2018-09-18T22:22:14.641Z,9.43
2018-09-18T22:24:42.702Z,9.90
2018-09-18T22:27:10.798Z,9.83
2018-09-18T22:29:38.897Z,10.03
2018-09-18T22:32:07.122Z,10.00
2018-09-18T22:34:35.206Z,10.37
2018-09-18T22:37:03.300Z,10.87
2018-09-18T22:39:31.603Z,9.30
2018-09-18T22:41:59.683Z,10.03
2018-09-18T22:44:27.774Z,9.67
2018-09-18T22:46:55.910Z,10.43
2018-09-18T22:49:23.947Z,9.63
2018-09-18T22:51:52.045Z,10.00
2018-09-18T22:54:20.158Z,10.53
2018-09-18T22:56:48.257Z,10.27
2018-09-18T22:59:16.344Z,10.03
2018-09-18T23:01:44.445Z,10.03
2018-09-18T23:04:12.642Z,10.13
2018-09-18T23:06:40.757Z,10.37
2018-09-18T23:09:09.394Z,9.50
2018-09-18T23:11:37.501Z,10.07
2018-09-18T23:14:05.593Z,10.10
2018-09-18T23:16:33.691Z,10.23
2018-09-18T23:19:02.094Z,9.93
2018-09-18T23:21:30.223Z,9.83
2018-09-18T23:23:58.319Z,10.30
2018-09-18T23:26:26.410Z,9.60
2018-09-18T23:28:54.506Z,9.47
2018-09-18T23:31:22.597Z,9.10
2018-09-18T23:33:50.690Z,9.60
2018-09-18T23:36:18.778Z,9.83
2018-09-18T23:38:46.879Z,10.30
2018-09-18T23:41:14.954Z,9.73
2018-09-18T23:43:43.050Z,10.63
2018-09-18T23:46:11.139Z,10.27
2018-09-18T23:48:39.233Z,11.43
2018-09-18T23:51:07.321Z,10.53
2018-09-18T23:53:35.466Z,9.70
2018-09-18T23:56:03.761Z,10.87
2018-09-18T23:58:31.943Z,10.40
